createdAt,value
2022-09-12T00:02:05.476Z,19.80
2022-09-12T00:04:33.398Z,19.80
2022-09-12T00:07:01.157Z,19.80
2022-09-12T00:09:29.083Z,19.80
2022-09-12T00:14:49.427Z,19.90
2022-09-12T00:17:19.312Z,20.00
2022-09-12T00:19:49.531Z,19.90
2022-09-12T00:22:17.322Z,19.90
2022-09-12T00:24:45.308Z,19.90
2022-09-12T00:27:15.195Z,19.70
2022-09-12T00:29:59.674Z,19.60
2022-09-12T00:32:29.814Z,19.60
2022-09-12T00:34:57.660Z,19.60
2022-09-12T00:37:25.459Z,19.60
2022-09-12T00:39:53.434Z,19.70
2022-09-12T00:42:27.407Z,19.80
2022-09-12T00:44:57.291Z,19.70
2022-09-12T00:47:29.663Z,19.70
2022-09-12T00:50:06.070Z,19.70
2022-09-12T00:52:38.369Z,19.80
2022-09-12T00:55:13.314Z,19.80
2022-09-12T00:57:45.531Z,19.70
2022-09-12T01:00:16.094Z,19.80
2022-09-12T01:02:55.893Z,19.80
2022-09-12T01:05:25.883Z,19.80
2022-09-12T01:07:54.431Z,19.40
2022-09-12T01:10:22.418Z,19.50
2022-09-12T01:12:50.534Z,19.40
2022-09-12T01:15:18.486Z,19.50
2022-09-12T01:18:05.998Z,19.40
2022-09-12T01:21:02.040Z,19.40
2022-09-12T01:24:12.846Z,19.40
2022-09-12T01:27:32.298Z,19.30
2022-09-12T01:30:23.883Z,19.30
2022-09-12T01:33:36.876Z,19.20
2022-09-12T01:36:24.298Z,19.30
2022-09-12T01:38:59.194Z,19.10
2022-09-12T01:41:32.048Z,19.10
2022-09-12T01:44:07.438Z,19.10
2022-09-12T01:46:46.282Z,19.20
2022-09-12T01:49:27.787Z,19.30
2022-09-12T01:52:01.055Z,19.20
2022-09-12T01:54:38.134Z,19.20
2022-09-12T01:57:14.758Z,19.20
2022-09-12T01:59:50.320Z,19.10
2022-09-12T02:02:23.919Z,19.00
2022-09-12T02:04:57.564Z,19.10
2022-09-12T02:07:36.848Z,19.00
2022-09-12T02:10:10.407Z,18.80
2022-09-12T02:12:45.458Z,18.90
2022-09-12T02:15:15.907Z,18.90
2022-09-12T02:17:46.953Z,18.80
2022-09-12T02:20:44.327Z,18.90
2022-09-12T02:23:15.500Z,18.90
2022-09-12T02:25:47.620Z,18.80
2022-09-12T02:28:25.220Z,18.90
2022-09-12T02:31:00.698Z,18.90
2022-09-12T02:33:33.683Z,18.90
2022-09-12T02:36:13.756Z,18.90
2022-09-12T02:38:45.738Z,19.00
2022-09-12T02:41:22.075Z,19.10
2022-09-12T02:43:53.651Z,19.10
2022-09-12T02:46:26.383Z,19.00
2022-09-12T02:48:59.597Z,19.00
2022-09-12T02:51:28.834Z,19.00
2022-09-12T02:54:00.266Z,18.90
2022-09-12T02:56:30.607Z,18.90
2022-09-12T02:59:04.879Z,18.80
2022-09-12T03:01:52.616Z,18.90
2022-09-12T03:05:05.643Z,18.80
2022-09-12T03:07:51.999Z,18.80
2022-09-12T03:10:40.423Z,18.80
2022-09-12T03:13:26.443Z,18.80
2022-09-12T03:16:05.044Z,18.80
2022-09-12T03:18:44.356Z,18.80
2022-09-12T03:21:29.906Z,18.70
2022-09-12T03:24:14.326Z,18.80
2022-09-12T03:26:46.164Z,18.80
2022-09-12T03:29:20.139Z,18.80
2022-09-12T03:31:53.377Z,18.70
2022-09-12T03:34:26.381Z,18.90
2022-09-12T03:36:58.156Z,18.80
2022-09-12T03:39:30.989Z,18.80
2022-09-12T03:42:01.075Z,18.70
2022-09-12T03:44:29.027Z,18.70
2022-09-12T03:46:56.829Z,18.80
2022-09-12T03:49:24.603Z,18.80
2022-09-12T03:52:01.517Z,18.70
2022-09-12T03:54:33.199Z,18.70
2022-09-12T03:57:03.304Z,18.70
2022-09-12T03:59:31.139Z,18.80
2022-09-12T04:01:59.042Z,18.70
2022-09-12T04:04:27.026Z,18.70
2022-09-12T04:06:55.144Z,18.80
2022-09-12T04:09:25.172Z,18.70
2022-09-12T04:11:56.522Z,18.70
2022-09-12T04:14:26.745Z,18.60
2022-09-12T04:16:56.918Z,18.60
2022-09-12T04:19:39.360Z,18.80
2022-09-12T04:22:09.606Z,18.80
2022-09-12T04:24:42.428Z,18.80
2022-09-12T04:27:11.621Z,18.80
2022-09-12T04:29:41.849Z,18.90
2022-09-12T04:32:09.704Z,18.80
2022-09-12T04:34:42.957Z,18.70
2022-09-12T04:37:11.645Z,18.70
2022-09-12T04:39:39.635Z,18.70
2022-09-12T04:42:07.737Z,18.70
2022-09-12T04:44:37.487Z,18.70
2022-09-12T04:47:05.508Z,18.70
2022-09-12T04:49:41.295Z,18.70
2022-09-12T04:52:09.310Z,18.70
2022-09-12T04:54:38.245Z,18.60
2022-09-12T04:57:06.206Z,18.70
2022-09-12T04:59:34.169Z,18.60
2022-09-12T05:02:03.615Z,18.60
2022-09-12T05:04:31.587Z,18.60
2022-09-12T05:07:02.294Z,18.60
2022-09-12T05:09:30.131Z,18.70
2022-09-12T05:12:05.780Z,18.80
2022-09-12T05:14:34.626Z,18.80
2022-09-12T05:17:06.875Z,18.90
2022-09-12T05:19:34.749Z,18.90
2022-09-12T05:22:02.595Z,19.00
2022-09-12T05:24:39.579Z,19.00
2022-09-12T05:27:07.457Z,19.00
2022-09-12T05:29:35.871Z,18.90
2022-09-12T05:32:07.742Z,19.00
2022-09-12T05:34:35.550Z,18.90
2022-09-12T05:37:03.373Z,19.10
2022-09-12T05:39:31.159Z,19.10
2022-09-12T05:41:58.987Z,19.10
2022-09-12T05:44:29.232Z,19.10
2022-09-12T05:46:57.494Z,19.00
2022-09-12T05:49:26.922Z,18.70
2022-09-12T05:51:54.767Z,18.80
2022-09-12T05:54:28.296Z,18.90
2022-09-12T05:56:58.695Z,19.10
2022-09-12T05:59:28.372Z,19.10
2022-09-12T06:01:58.794Z,18.90
2022-09-12T06:04:28.647Z,19.00
2022-09-12T06:06:56.504Z,19.10
2022-09-12T06:09:25.457Z,19.30
2022-09-12T06:11:53.517Z,19.20
2022-09-12T06:14:22.332Z,19.30
2022-09-12T06:17:00.194Z,19.30
2022-09-12T06:19:32.684Z,19.40
2022-09-12T06:22:01.531Z,19.50
2022-09-12T06:24:32.534Z,19.50
2022-09-12T06:27:02.249Z,19.40
2022-09-12T06:29:32.499Z,19.50
2022-09-12T06:32:02.716Z,19.60
2022-09-12T06:34:34.395Z,19.70
2022-09-12T06:37:05.291Z,19.70
2022-09-12T06:39:33.186Z,19.70
2022-09-12T06:42:01.117Z,19.70
2022-09-12T06:44:31.997Z,19.80
2022-09-12T06:47:01.901Z,19.70
2022-09-12T06:49:30.936Z,19.70
2022-09-12T06:52:00.886Z,19.80
2022-09-12T06:54:28.734Z,19.80
2022-09-12T06:56:56.634Z,19.80
2022-09-12T06:59:24.815Z,19.90
2022-09-12T07:01:52.690Z,20.00
2022-09-12T07:04:22.936Z,19.90
2022-09-12T07:06:53.028Z,20.10
2022-09-12T07:09:29.574Z,20.20
2022-09-12T07:11:57.427Z,20.20
2022-09-12T07:14:39.332Z,20.30
2022-09-12T07:17:08.597Z,20.40
2022-09-12T07:19:36.455Z,20.30
2022-09-12T07:22:04.271Z,20.40
2022-09-12T07:24:33.407Z,20.50
2022-09-12T07:27:01.231Z,20.60
2022-09-12T07:29:37.775Z,20.60
2022-09-12T07:32:06.667Z,20.80
2022-09-12T07:34:35.154Z,20.80
2022-09-12T07:37:03.007Z,20.80
2022-09-12T07:39:32.875Z,20.80
2022-09-12T07:42:02.050Z,20.60
2022-09-12T07:44:30.125Z,20.20
2022-09-12T07:46:57.972Z,20.10
2022-09-12T07:49:25.842Z,20.30
2022-09-12T07:51:53.835Z,20.50
2022-09-12T07:54:21.825Z,20.60
2022-09-12T07:56:51.748Z,20.70
2022-09-12T07:59:48.381Z,20.80
2022-09-12T08:02:17.087Z,20.80
2022-09-12T08:04:46.108Z,20.90
2022-09-12T08:07:13.989Z,21.00
2022-09-12T08:09:41.803Z,20.90
2022-09-12T08:12:10.134Z,20.90
2022-09-12T08:14:39.393Z,20.90
2022-09-12T08:17:12.870Z,21.00
2022-09-12T08:19:46.827Z,21.10
2022-09-12T08:22:14.658Z,21.10
2022-09-12T08:24:42.515Z,21.20
2022-09-12T08:27:10.593Z,21.30
2022-09-12T08:29:42.212Z,21.30
2022-09-12T08:32:12.675Z,21.30
2022-09-12T08:34:42.948Z,21.20
2022-09-12T08:37:10.787Z,21.30
2022-09-12T08:39:38.667Z,21.10
2022-09-12T08:44:56.483Z,21.20
2022-09-12T08:47:30.942Z,21.20
2022-09-12T08:50:09.694Z,21.40
2022-09-12T08:52:47.414Z,21.40
2022-09-12T08:55:33.122Z,21.30
2022-09-12T08:58:14.268Z,21.30
2022-09-12T09:00:49.840Z,21.20
2022-09-12T09:03:45.264Z,21.30
2022-09-12T09:06:34.928Z,21.40
2022-09-12T09:09:14.741Z,21.30
2022-09-12T09:11:57.979Z,21.20
2022-09-12T09:14:55.315Z,21.20
2022-09-12T09:17:29.511Z,21.30
2022-09-12T09:20:06.443Z,21.40
2022-09-12T09:22:55.604Z,21.50
2022-09-12T09:25:29.418Z,21.60
2022-09-12T09:28:06.306Z,21.50
2022-09-12T09:30:36.856Z,21.60
2022-09-12T09:33:15.034Z,21.70
2022-09-12T09:35:46.280Z,21.70
2022-09-12T09:38:26.215Z,21.60
2022-09-12T09:41:12.571Z,21.90
2022-09-12T09:43:47.822Z,22.00
2022-09-12T09:46:16.498Z,22.10
2022-09-12T09:48:49.019Z,22.20
2022-09-12T09:51:34.266Z,22.20
2022-09-12T09:54:10.465Z,22.20
2022-09-12T09:56:49.943Z,21.90
2022-09-12T09:59:26.262Z,21.90
2022-09-12T10:01:55.751Z,22.30
2022-09-12T10:04:27.317Z,22.40
2022-09-12T10:06:58.078Z,22.30
2022-09-12T10:09:28.795Z,22.40
2022-09-12T10:11:58.610Z,22.60
2022-09-12T10:14:36.634Z,22.50
2022-09-12T10:17:31.743Z,22.60
2022-09-12T10:22:52.647Z,22.60
2022-09-12T10:25:21.533Z,22.30
2022-09-12T10:27:58.444Z,22.40
2022-09-12T10:30:31.257Z,22.40
2022-09-12T10:33:11.310Z,22.60
2022-09-12T10:35:51.636Z,22.70
2022-09-12T10:38:27.740Z,22.60
2022-09-12T10:41:15.561Z,22.70
2022-09-12T10:43:46.473Z,22.90
2022-09-12T10:46:32.920Z,22.80
2022-09-12T10:49:33.482Z,22.70
2022-09-12T10:52:18.922Z,22.80
2022-09-12T10:54:51.825Z,22.40
2022-09-12T10:57:48.876Z,22.50
2022-09-12T11:00:22.371Z,22.90
2022-09-12T11:02:57.390Z,23.00
2022-09-12T11:05:41.891Z,23.40
2022-09-12T11:08:31.490Z,23.60
2022-09-12T11:11:13.520Z,23.70
2022-09-12T11:14:03.787Z,23.90
2022-09-12T11:16:42.672Z,24.00
2022-09-12T11:19:52.377Z,24.30
2022-09-12T11:22:33.720Z,24.40
2022-09-12T11:25:24.726Z,24.20
2022-09-12T11:28:22.951Z,24.50
2022-09-12T11:31:03.869Z,24.70
2022-09-12T11:33:43.219Z,24.70
2022-09-12T11:36:20.944Z,24.60
2022-09-12T11:38:58.752Z,24.60
2022-09-12T11:41:32.384Z,24.70
2022-09-12T11:44:19.182Z,24.70
2022-09-12T11:46:52.988Z,24.80
2022-09-12T11:49:27.421Z,24.90
2022-09-12T11:52:04.771Z,25.00
2022-09-12T11:54:37.131Z,25.30
2022-09-12T11:57:17.755Z,25.50
2022-09-12T11:59:53.367Z,25.30
2022-09-12T12:02:28.668Z,25.30
2022-09-12T12:05:08.831Z,25.30
2022-09-12T12:07:45.783Z,25.00
2022-09-12T12:10:26.868Z,25.10
2022-09-12T12:12:59.909Z,25.40
2022-09-12T12:15:29.211Z,25.70
2022-09-12T12:18:08.734Z,25.50
2022-09-12T12:20:45.815Z,25.80
2022-09-12T12:23:28.487Z,26.10
2022-09-12T12:25:57.990Z,26.20
2022-09-12T12:29:00.957Z,26.40
2022-09-12T12:31:28.865Z,26.50
2022-09-12T12:34:23.475Z,26.30
2022-09-12T12:36:51.366Z,26.50
2022-09-12T12:39:56.200Z,26.00
2022-09-12T12:43:14.530Z,25.90
2022-09-12T12:46:06.335Z,26.30
2022-09-12T12:49:07.193Z,26.40
2022-09-12T12:52:05.493Z,26.20
2022-09-12T12:54:59.304Z,25.90
2022-09-12T12:57:46.650Z,25.90
2022-09-12T13:00:30.566Z,26.10
2022-09-12T13:03:04.846Z,25.80
2022-09-12T13:05:41.347Z,25.70
2022-09-12T13:08:13.948Z,26.10
2022-09-12T13:10:53.760Z,26.50
2022-09-12T13:13:36.025Z,26.40
2022-09-12T13:16:07.634Z,26.60
2022-09-12T13:18:44.348Z,27.00
2022-09-12T13:21:16.697Z,27.10
2022-09-12T13:26:27.940Z,27.10
2022-09-12T13:29:15.756Z,26.40
2022-09-12T13:31:47.482Z,26.30
2022-09-12T13:34:24.354Z,26.20
2022-09-12T13:37:12.721Z,26.40
2022-09-12T13:39:49.758Z,26.90
2022-09-12T13:42:40.038Z,27.00
2022-09-12T13:45:14.771Z,27.00
2022-09-12T13:47:44.070Z,27.20
2022-09-12T13:50:19.788Z,27.20
2022-09-12T13:52:58.650Z,27.30
2022-09-12T13:55:36.886Z,27.10
2022-09-12T13:58:06.434Z,27.50
2022-09-12T14:00:36.013Z,27.00
2022-09-12T14:03:44.135Z,27.40
2022-09-12T14:06:20.095Z,27.90
2022-09-12T14:08:48.832Z,28.40
2022-09-12T14:11:28.061Z,28.60
2022-09-12T14:13:56.294Z,28.60
2022-09-12T14:16:27.262Z,28.40
2022-09-12T14:18:55.507Z,28.00
2022-09-12T14:21:35.505Z,28.10
2022-09-12T14:24:06.117Z,28.30
2022-09-12T14:26:36.354Z,27.90
2022-09-12T14:29:07.104Z,27.60
2022-09-12T14:31:37.668Z,27.50
2022-09-12T14:34:13.630Z,27.30
2022-09-12T14:36:45.644Z,27.00
2022-09-12T14:39:25.399Z,27.10
2022-09-12T14:42:03.430Z,27.40
2022-09-12T14:44:37.694Z,27.60
2022-09-12T14:47:20.117Z,27.30
2022-09-12T14:49:52.511Z,26.60
2022-09-12T14:52:33.050Z,26.90
2022-09-12T14:55:17.061Z,27.20
2022-09-12T14:57:45.181Z,27.50
2022-09-12T15:00:23.916Z,27.40
2022-09-12T15:02:55.855Z,27.40
2022-09-12T15:05:28.989Z,27.30
2022-09-12T15:08:03.491Z,27.50
2022-09-12T15:10:35.393Z,27.30
2022-09-12T15:13:21.052Z,27.40
2022-09-12T15:15:51.783Z,27.50
2022-09-12T15:18:20.708Z,27.30
2022-09-12T15:21:07.279Z,27.20
2022-09-12T15:23:40.257Z,27.40
2022-09-12T15:26:11.011Z,27.20
2022-09-12T15:28:40.058Z,26.70
2022-09-12T15:31:13.442Z,26.90
2022-09-12T15:33:41.432Z,27.30
2022-09-12T15:36:20.670Z,27.40
2022-09-12T15:38:50.609Z,27.40
2022-09-12T15:41:20.212Z,27.30
2022-09-12T15:43:51.184Z,27.00
2022-09-12T15:46:20.235Z,26.60
2022-09-12T15:48:48.172Z,26.50
2022-09-12T15:51:17.750Z,26.50
2022-09-12T15:53:46.730Z,26.50
2022-09-12T15:56:17.526Z,26.40
2022-09-12T15:59:00.286Z,26.40
2022-09-12T16:01:31.335Z,26.20
2022-09-12T16:03:59.646Z,26.00
2022-09-12T16:06:37.287Z,25.70
2022-09-12T16:09:07.769Z,25.90
2022-09-12T16:11:36.942Z,25.80
2022-09-12T16:14:06.122Z,25.70
2022-09-12T16:16:34.761Z,25.60
2022-09-12T16:19:02.576Z,25.60
2022-09-12T16:21:37.599Z,25.40
2022-09-12T16:24:05.984Z,25.70
2022-09-12T16:26:34.027Z,25.70
2022-09-12T16:29:10.266Z,25.70
2022-09-12T16:31:39.973Z,25.70
2022-09-12T16:34:08.134Z,25.40
2022-09-12T16:36:35.994Z,25.30
2022-09-12T16:39:03.983Z,25.10
2022-09-12T16:41:34.024Z,25.40
2022-09-12T16:44:05.757Z,25.20
2022-09-12T16:46:36.591Z,25.10
2022-09-12T16:49:09.326Z,25.40
2022-09-12T16:51:46.134Z,25.50
2022-09-12T16:54:17.480Z,25.40
2022-09-12T16:56:48.913Z,25.40
2022-09-12T16:59:18.053Z,25.50
2022-09-12T17:01:46.167Z,25.50
2022-09-12T17:04:19.655Z,25.50
2022-09-12T17:06:51.270Z,25.60
2022-09-12T17:09:19.323Z,25.70
2022-09-12T17:11:49.537Z,25.70
2022-09-12T17:14:18.949Z,25.70
2022-09-12T17:16:51.716Z,25.80
2022-09-12T17:19:22.089Z,25.80
2022-09-12T17:21:50.567Z,25.80
2022-09-12T17:24:19.965Z,25.60
2022-09-12T17:26:51.940Z,25.60
2022-09-12T17:29:26.519Z,25.60
2022-09-12T17:31:57.130Z,25.70
2022-09-12T17:34:24.960Z,25.60
2022-09-12T17:39:39.837Z,25.70
2022-09-12T17:42:08.602Z,25.60
2022-09-12T17:44:38.106Z,25.70
2022-09-12T17:47:06.070Z,25.70
2022-09-12T17:49:35.942Z,25.50
2022-09-12T17:52:12.091Z,25.40
2022-09-12T17:54:39.924Z,25.30
2022-09-12T17:57:07.753Z,25.40
2022-09-12T17:59:36.919Z,25.40
2022-09-12T18:02:21.383Z,25.40
2022-09-12T18:04:57.730Z,25.30
2022-09-12T18:07:25.536Z,25.30
2022-09-12T18:09:53.462Z,25.30
2022-09-12T18:12:21.315Z,25.20
2022-09-12T18:14:50.467Z,25.10
2022-09-12T18:17:20.900Z,25.10
2022-09-12T18:19:53.411Z,25.00
2022-09-12T18:22:21.515Z,25.10
2022-09-12T18:24:49.372Z,25.00
2022-09-12T18:27:17.196Z,24.90
2022-09-12T18:29:58.919Z,24.90
2022-09-12T18:32:36.988Z,24.90
2022-09-12T18:35:07.438Z,24.80
2022-09-12T18:37:35.390Z,24.70
2022-09-12T18:40:06.144Z,24.80
2022-09-12T18:42:34.003Z,24.80
2022-09-12T18:45:01.866Z,24.60
2022-09-12T18:47:36.633Z,24.60
2022-09-12T18:50:07.933Z,24.50
2022-09-12T18:52:37.860Z,24.40
2022-09-12T18:55:08.351Z,24.30
2022-09-12T18:57:36.161Z,24.20
2022-09-12T19:00:12.311Z,24.20
2022-09-12T19:02:41.753Z,24.30
2022-09-12T19:05:12.161Z,24.30
2022-09-12T19:07:40.020Z,24.20
2022-09-12T19:10:11.055Z,23.90
2022-09-12T19:12:41.921Z,23.80
2022-09-12T19:15:10.793Z,23.80
2022-09-12T19:17:38.614Z,23.90
2022-09-12T19:20:10.648Z,23.90
2022-09-12T19:22:38.446Z,23.90
2022-09-12T19:25:07.124Z,23.90
2022-09-12T19:27:37.080Z,24.00
2022-09-12T19:30:05.686Z,23.90
2022-09-12T19:32:36.009Z,23.90
2022-09-12T19:35:04.947Z,23.90
2022-09-12T19:37:36.692Z,23.90
2022-09-12T19:40:07.681Z,24.00
2022-09-12T19:42:35.574Z,23.90
2022-09-12T19:45:03.421Z,24.00
2022-09-12T19:47:31.227Z,24.00
2022-09-12T19:49:59.016Z,24.00
2022-09-12T19:52:28.975Z,23.90
2022-09-12T19:54:58.140Z,23.80
2022-09-12T19:57:28.754Z,23.80
2022-09-12T19:59:56.599Z,23.80
2022-09-12T20:02:26.382Z,23.60
2022-09-12T20:04:54.270Z,23.60
2022-09-12T20:07:24.917Z,23.60
2022-09-12T20:09:56.083Z,23.50
2022-09-12T20:12:25.250Z,23.60
2022-09-12T20:14:58.406Z,23.70
2022-09-12T20:17:26.288Z,23.70
2022-09-12T20:19:56.468Z,23.80
2022-09-12T20:22:24.339Z,23.70
2022-09-12T20:24:52.326Z,23.80
2022-09-12T20:27:23.150Z,23.80
2022-09-12T20:29:57.456Z,23.70
2022-09-12T20:32:28.288Z,23.60
2022-09-12T20:34:58.562Z,23.70
2022-09-12T20:37:26.361Z,23.60
2022-09-12T20:40:05.279Z,23.50
2022-09-12T20:42:35.190Z,23.40
2022-09-12T20:45:05.255Z,23.40
2022-09-12T20:47:35.550Z,23.40
2022-09-12T20:50:03.487Z,23.40
2022-09-12T20:52:31.429Z,23.30
2022-09-12T20:55:03.054Z,23.40
2022-09-12T20:57:30.987Z,23.40
2022-09-12T20:59:58.921Z,23.00
2022-09-12T21:02:29.722Z,22.80
2022-09-12T21:04:57.776Z,22.80
2022-09-12T21:07:34.561Z,22.60
2022-09-12T21:10:02.371Z,22.40
2022-09-12T21:12:32.472Z,22.20
2022-09-12T21:15:02.665Z,22.40
2022-09-12T21:17:31.848Z,22.50
2022-09-12T21:20:01.792Z,22.50
2022-09-12T21:22:30.718Z,22.50
2022-09-12T21:25:04.563Z,22.60
2022-09-12T21:27:34.775Z,22.20
2022-09-12T21:30:03.624Z,22.40
2022-09-12T21:32:36.970Z,22.50
2022-09-12T21:35:05.864Z,22.40
2022-09-12T21:37:36.170Z,22.30
2022-09-12T21:40:04.782Z,22.20
2022-09-12T21:42:32.810Z,22.30
2022-09-12T21:45:07.372Z,22.00
2022-09-12T21:47:41.488Z,22.10
2022-09-12T21:50:12.874Z,22.10
2022-09-12T21:52:40.711Z,22.10
2022-09-12T21:55:09.746Z,22.10
2022-09-12T21:57:37.939Z,22.30
2022-09-12T22:00:08.002Z,22.40
2022-09-12T22:02:37.144Z,22.40
2022-09-12T22:05:07.761Z,22.10
2022-09-12T22:07:38.773Z,22.20
2022-09-12T22:10:16.143Z,22.00
2022-09-12T22:12:46.531Z,22.30
2022-09-12T22:15:39.513Z,22.50
2022-09-12T22:18:07.620Z,22.50
2022-09-12T22:20:35.447Z,22.40
2022-09-12T22:23:24.761Z,22.50
2022-09-12T22:25:55.223Z,22.50
2022-09-12T22:28:26.712Z,22.40
2022-09-12T22:31:04.482Z,22.50
2022-09-12T22:33:35.837Z,22.40
2022-09-12T22:36:03.926Z,22.10
2022-09-12T22:38:31.713Z,22.20
2022-09-12T22:41:00.156Z,22.00
2022-09-12T22:43:30.780Z,22.10
2022-09-12T22:45:58.564Z,22.30
2022-09-12T22:48:26.842Z,22.10
2022-09-12T22:50:55.994Z,22.00
2022-09-12T22:53:23.879Z,21.70
2022-09-12T22:55:59.182Z,21.90
2022-09-12T22:58:29.751Z,21.80
2022-09-12T23:00:57.658Z,21.60
2022-09-12T23:03:42.570Z,21.40
2022-09-12T23:06:12.645Z,21.60
2022-09-12T23:08:41.459Z,21.60
2022-09-12T23:11:17.996Z,21.80
2022-09-12T23:13:48.197Z,21.90
2022-09-12T23:16:19.185Z,22.00
2022-09-12T23:18:47.436Z,21.50
2022-09-12T23:21:18.035Z,21.70
2022-09-12T23:23:48.211Z,21.70
2022-09-12T23:26:20.582Z,21.80
2022-09-12T23:28:53.679Z,21.80
2022-09-12T23:31:29.646Z,21.80
2022-09-12T23:33:58.839Z,21.60
2022-09-12T23:36:30.763Z,21.60
2022-09-12T23:39:05.309Z,21.70
2022-09-12T23:41:35.310Z,21.60
2022-09-12T23:44:03.563Z,21.80
2022-09-12T23:46:33.577Z,21.90
2022-09-12T23:49:03.518Z,21.90
2022-09-12T23:51:38.532Z,21.80
2022-09-12T23:54:06.442Z,21.70
2022-09-12T23:56:36.317Z,21.70
2022-09-12T23:59:12.728Z,21.80
